Etusivu
METAR-TAF:

METAR-TAF

Lentoasemat :

A.L. Mangham Jr. Regional Airport

Nacogdoches, Texas, Yhdysvallat

Leveyspiiri: 31-35N, Pituuspiiri: 094-43W, korkeus merenpinnasta: 108 m

Tämänhetkinen sää

Tämä raportti tehtiin 9 minuuttia sitten, kello 11.56 UTC
tyyntä
Lämpötila 3°C
Kosteus 100%
Ilmanpaine 1016 hPa
Näkyvyys: 11.3 km
selkeää

METAR: KOCH 181156Z AUTO 00000KT 7SM CLR 03/03 A2999 RMK AO2 SLP160 T00330033 10061 20022 53006

Aika: 06:05 (12:05 UTC)


TAF: puuttuu

Säähavainnot ja -ennusteet yli 4000 lentoasemalta (METAR- ja TAF-raportit).

Käytössä olevat sääasemat on merkitty karttaan keltaisilla ja punaisilla pisteillä.

Aseta hiiri pisteen päälle nähdäksesi sääaseman nimen.

Klikkaa sitten nähdäksesi säähavainnot ja -ennusteet.

Kartan vaihtaminen: klikkaa mustalla rastilla varustettuja vihreitä pisteitä, niin voit zoomata sisään; viivalla varustettua vihreää pistettä, niin voit zoomata ulos tai vihreitä nuolia, niin pääset viereisille kartoille.


METAR-TAF: